createdAt,value
2018-12-03T00:01:26.343Z,18.03
2018-12-03T00:03:58.768Z,18.37
2018-12-03T00:06:28.115Z,18.17
2018-12-03T00:08:57.357Z,18.67
2018-12-03T00:11:26.620Z,18.03
2018-12-03T00:13:55.931Z,17.43
2018-12-03T00:16:25.192Z,18.00
2018-12-03T00:18:54.539Z,18.67
2018-12-03T00:21:23.833Z,17.63
2018-12-03T00:23:53.184Z,16.90
2018-12-03T00:26:22.445Z,17.77
2018-12-03T00:28:51.753Z,17.00
2018-12-03T00:31:21.022Z,17.20
2018-12-03T00:33:50.195Z,16.70
2018-12-03T00:36:19.864Z,15.70
2018-12-03T00:38:49.077Z,16.80
2018-12-03T00:41:19.009Z,17.13
2018-12-03T00:43:48.260Z,17.17
2018-12-03T00:46:17.689Z,16.70
2018-12-03T00:48:47.314Z,16.03
2018-12-03T00:51:16.708Z,16.43
2018-12-03T00:53:45.987Z,16.07
2018-12-03T00:56:16.234Z,16.63
2018-12-03T00:58:46.541Z,15.83
2018-12-03T01:01:15.839Z,14.47
2018-12-03T01:03:45.188Z,15.87
2018-12-03T01:06:15.157Z,16.33
2018-12-03T01:08:44.938Z,15.73
2018-12-03T01:11:14.205Z,15.73
2018-12-03T01:13:43.509Z,16.00
2018-12-03T01:16:12.767Z,15.27
2018-12-03T01:18:41.955Z,15.80
2018-12-03T01:21:11.359Z,15.13
2018-12-03T01:23:40.567Z,15.87
2018-12-03T01:26:09.766Z,15.50
2018-12-03T01:28:39.008Z,15.50
2018-12-03T01:31:08.307Z,14.90
2018-12-03T01:33:37.467Z,14.37
2018-12-03T01:36:07.076Z,15.53
2018-12-03T01:38:36.541Z,13.80
2018-12-03T01:41:06.508Z,15.50
2018-12-03T01:43:35.786Z,13.77
2018-12-03T01:46:05.000Z,13.50
2018-12-03T01:48:34.324Z,12.97
2018-12-03T01:51:03.523Z,12.23
2018-12-03T01:53:32.759Z,13.30
2018-12-03T01:56:01.997Z,13.00
2018-12-03T01:58:31.288Z,13.13
2018-12-03T02:01:00.454Z,12.57
2018-12-03T02:03:29.654Z,13.43
2018-12-03T02:05:58.976Z,12.53
2018-12-03T02:08:28.388Z,11.93
2018-12-03T02:10:57.689Z,12.80
2018-12-03T02:13:26.948Z,11.93
2018-12-03T02:15:56.270Z,12.73
2018-12-03T02:18:25.685Z,11.77
2018-12-03T02:20:54.978Z,11.97
2018-12-03T02:23:24.277Z,13.10
2018-12-03T02:25:53.738Z,13.63
2018-12-03T02:28:23.079Z,12.47
2018-12-03T02:30:52.419Z,12.77
2018-12-03T02:33:21.654Z,12.67
2018-12-03T02:35:50.916Z,12.87
2018-12-03T02:38:20.201Z,13.13
2018-12-03T02:40:49.551Z,12.10
2018-12-03T02:43:18.810Z,13.87
2018-12-03T02:45:48.106Z,13.50
2018-12-03T02:48:17.880Z,13.30
2018-12-03T02:50:47.245Z,12.80
2018-12-03T02:53:16.638Z,13.07
2018-12-03T02:55:46.345Z,12.73
2018-12-03T02:58:15.819Z,13.67
2018-12-03T03:00:46.329Z,13.20
2018-12-03T03:03:14.680Z,13.90
2018-12-03T03:05:44.082Z,13.83
2018-12-03T03:08:13.419Z,12.90
2018-12-03T03:10:43.127Z,12.73
2018-12-03T03:13:12.448Z,12.73
2018-12-03T03:15:41.660Z,12.20
2018-12-03T03:18:10.960Z,11.70
2018-12-03T03:20:40.326Z,12.30
2018-12-03T03:23:09.615Z,12.17
2018-12-03T03:25:38.874Z,12.23
2018-12-03T03:28:08.181Z,11.93
2018-12-03T03:30:37.485Z,12.07
2018-12-03T03:33:06.916Z,12.47
2018-12-03T03:35:36.412Z,12.33
2018-12-03T03:38:05.704Z,12.20
2018-12-03T03:40:35.007Z,12.03
2018-12-03T03:43:04.285Z,11.17
2018-12-03T03:45:33.798Z,11.57
2018-12-03T03:48:02.987Z,12.27
2018-12-03T03:50:32.284Z,12.17
2018-12-03T03:53:01.393Z,11.80
2018-12-03T03:55:30.725Z,11.97
2018-12-03T03:57:59.971Z,12.33
2018-12-03T04:00:29.117Z,12.53
2018-12-03T04:02:58.259Z,12.10
2018-12-03T04:05:27.622Z,12.27
2018-12-03T04:07:56.811Z,12.37
2018-12-03T04:10:26.102Z,12.37
2018-12-03T04:12:55.521Z,12.33
2018-12-03T04:15:24.963Z,12.83
2018-12-03T04:17:54.201Z,13.13
2018-12-03T04:20:23.409Z,13.03
2018-12-03T04:22:54.109Z,13.13
2018-12-03T04:25:23.451Z,13.73
2018-12-03T04:27:52.831Z,13.90
2018-12-03T04:30:23.134Z,12.50
2018-12-03T04:32:53.417Z,12.67
2018-12-03T04:35:23.787Z,13.70
2018-12-03T04:37:53.085Z,14.67
2018-12-03T04:40:22.496Z,14.60
2018-12-03T04:42:51.724Z,14.43
2018-12-03T04:45:20.919Z,14.00
2018-12-03T04:47:50.825Z,14.97
2018-12-03T04:50:21.098Z,15.30
2018-12-03T04:52:50.313Z,15.77
2018-12-03T04:55:20.576Z,13.77
2018-12-03T04:57:50.105Z,15.23
2018-12-03T05:00:20.578Z,14.67
2018-12-03T05:02:55.453Z,15.73
2018-12-03T05:05:24.740Z,14.73
2018-12-03T05:07:53.943Z,15.00
2018-12-03T05:10:23.542Z,15.80
2018-12-03T05:12:54.033Z,14.07
2018-12-03T05:15:23.438Z,15.00
2018-12-03T05:17:52.852Z,13.60
2018-12-03T05:20:23.748Z,15.27
2018-12-03T05:22:53.073Z,14.40
2018-12-03T05:25:22.349Z,14.93
2018-12-03T05:27:51.771Z,13.83
2018-12-03T05:30:20.990Z,14.17
2018-12-03T05:32:50.328Z,13.97
2018-12-03T05:35:22.889Z,15.20
2018-12-03T05:37:52.562Z,15.23
2018-12-03T05:40:24.145Z,15.27
2018-12-03T05:42:53.696Z,14.67
2018-12-03T05:45:23.112Z,14.27
2018-12-03T05:47:52.435Z,13.80
2018-12-03T05:50:21.707Z,14.13
2018-12-03T05:52:52.085Z,13.03
2018-12-03T05:55:21.843Z,14.23
2018-12-03T05:57:51.725Z,14.40
2018-12-03T06:00:23.689Z,13.40
2018-12-03T06:02:53.498Z,13.77
2018-12-03T06:05:22.733Z,14.27
2018-12-03T06:07:51.952Z,13.23
2018-12-03T06:10:22.229Z,14.07
2018-12-03T06:12:51.525Z,14.47
2018-12-03T06:15:21.624Z,14.57
2018-12-03T06:17:53.183Z,14.57
2018-12-03T06:20:24.651Z,15.20
2018-12-03T06:22:55.164Z,15.23
2018-12-03T06:25:28.005Z,16.23
2018-12-03T06:27:57.362Z,16.40
2018-12-03T06:30:27.981Z,16.40
2018-12-03T06:32:57.335Z,16.47
2018-12-03T06:35:26.624Z,15.83
2018-12-03T06:37:55.929Z,18.13
2018-12-03T06:40:28.048Z,18.00
2018-12-03T06:42:57.260Z,17.77
2018-12-03T06:45:27.356Z,17.47
2018-12-03T06:47:59.184Z,18.00
2018-12-03T06:50:28.493Z,16.83
2018-12-03T06:52:57.848Z,17.97
2018-12-03T06:55:27.467Z,17.80
2018-12-03T06:57:57.476Z,18.33
2018-12-03T07:00:27.266Z,19.57
2018-12-03T07:02:56.615Z,18.73
2018-12-03T07:05:25.980Z,20.03
2018-12-03T07:07:56.893Z,19.43
2018-12-03T07:10:26.494Z,19.10
2018-12-03T07:13:01.436Z,19.17
2018-12-03T07:15:33.429Z,20.70
2018-12-03T07:18:02.838Z,20.70
2018-12-03T07:20:32.101Z,20.00
2018-12-03T07:23:01.398Z,20.33
2018-12-03T07:25:30.717Z,20.63
2018-12-03T07:27:59.958Z,21.07
2018-12-03T07:30:30.266Z,20.67
2018-12-03T07:32:59.641Z,21.93
2018-12-03T07:35:28.910Z,20.47
2018-12-03T07:37:59.032Z,21.60
2018-12-03T07:40:29.372Z,20.80
2018-12-03T07:42:58.646Z,22.30
2018-12-03T07:45:27.923Z,22.63
2018-12-03T07:47:57.408Z,23.13
2018-12-03T07:50:26.880Z,21.37
2018-12-03T07:52:56.278Z,22.97
2018-12-03T07:55:27.436Z,22.87
2018-12-03T07:58:05.136Z,21.93
2018-12-03T08:00:37.990Z,21.27
2018-12-03T08:03:07.823Z,22.13
2018-12-03T08:05:37.817Z,20.00
2018-12-03T08:08:08.450Z,19.63
2018-12-03T08:10:38.233Z,20.90
2018-12-03T08:13:10.430Z,20.93
2018-12-03T08:15:39.901Z,20.73
2018-12-03T08:18:11.192Z,22.33
2018-12-03T08:20:50.381Z,20.50
2018-12-03T08:23:39.144Z,21.10
2018-12-03T08:26:10.111Z,20.27
2018-12-03T08:28:40.730Z,21.20
2018-12-03T08:31:10.307Z,21.77
2018-12-03T08:33:39.863Z,22.03
2018-12-03T08:36:09.673Z,21.90
2018-12-03T08:38:39.464Z,22.03
2018-12-03T08:41:08.498Z,22.20
2018-12-03T08:43:37.897Z,22.53
2018-12-03T08:46:09.470Z,22.60
2018-12-03T08:48:42.339Z,21.20
2018-12-03T08:51:16.316Z,20.63
2018-12-03T08:53:47.765Z,20.67
2018-12-03T08:56:20.421Z,19.97
2018-12-03T08:58:49.930Z,21.20
2018-12-03T09:01:22.147Z,21.23
2018-12-03T09:05:01.496Z,20.10
2018-12-03T09:07:36.453Z,19.27
2018-12-03T09:10:21.837Z,18.73
2018-12-03T09:12:55.995Z,20.60
2018-12-03T09:15:31.981Z,20.53
2018-12-03T09:18:02.856Z,19.67
2018-12-03T09:20:32.298Z,20.43
2018-12-03T09:23:02.192Z,19.73
2018-12-03T09:25:49.100Z,20.37
2018-12-03T09:28:20.702Z,21.00
2018-12-03T09:31:03.778Z,19.10
2018-12-03T09:33:35.943Z,20.33
2018-12-03T09:40:07.505Z,21.33
2018-12-03T09:42:48.906Z,20.00
2018-12-03T09:45:20.223Z,20.70
2018-12-03T09:47:54.241Z,19.77
2018-12-03T09:50:29.316Z,20.37
2018-12-03T09:53:18.087Z,21.40
2018-12-03T09:55:48.038Z,19.97
2018-12-03T09:58:25.037Z,20.13
2018-12-03T10:00:54.716Z,19.10
2018-12-03T10:03:26.423Z,20.73
2018-12-03T10:05:58.499Z,21.67
2018-12-03T10:08:31.066Z,21.40
2018-12-03T10:11:01.807Z,22.40
2018-12-03T10:13:34.708Z,23.27
2018-12-03T10:16:04.470Z,22.63
2018-12-03T10:18:34.079Z,22.87
2018-12-03T10:21:10.406Z,22.50
2018-12-03T10:23:40.193Z,22.13
2018-12-03T10:26:11.591Z,22.30
2018-12-03T10:28:41.060Z,22.23
2018-12-03T10:31:14.827Z,24.57
2018-12-03T10:33:44.919Z,22.93
2018-12-03T10:36:14.889Z,23.40
2018-12-03T10:38:46.639Z,23.50
2018-12-03T10:41:26.332Z,22.73
2018-12-03T10:43:58.081Z,22.07
2018-12-03T10:46:27.881Z,21.67
2018-12-03T10:49:03.893Z,22.67
2018-12-03T10:51:33.278Z,22.03
2018-12-03T10:54:02.989Z,21.40
2018-12-03T10:56:32.571Z,21.10
2018-12-03T10:59:01.934Z,21.60
2018-12-03T11:01:40.025Z,22.50
2018-12-03T11:04:14.462Z,22.00
2018-12-03T11:06:44.034Z,20.97
2018-12-03T11:09:23.104Z,22.43
2018-12-03T11:11:53.038Z,21.77
2018-12-03T11:14:22.479Z,21.93
2018-12-03T11:16:51.982Z,21.20
2018-12-03T11:19:21.488Z,20.47
2018-12-03T11:21:51.155Z,21.07
2018-12-03T11:24:20.659Z,21.30
2018-12-03T11:26:52.020Z,19.90
2018-12-03T11:29:26.912Z,19.10
2018-12-03T11:31:58.507Z,20.23
2018-12-03T11:34:34.731Z,20.03
2018-12-03T11:37:04.309Z,19.37
2018-12-03T11:39:44.018Z,20.43
2018-12-03T11:42:14.044Z,19.50
2018-12-03T11:44:44.119Z,19.40
2018-12-03T11:47:13.698Z,21.23
2018-12-03T11:52:27.450Z,19.33
2018-12-03T11:54:58.562Z,19.80
2018-12-03T11:57:28.009Z,20.63
2018-12-03T12:00:00.840Z,20.20
2018-12-03T12:02:50.301Z,19.90
2018-12-03T12:05:37.104Z,20.33
2018-12-03T12:08:14.739Z,18.50
2018-12-03T12:10:44.243Z,19.60
2018-12-03T12:13:29.017Z,19.07
2018-12-03T12:16:00.387Z,19.17
2018-12-03T12:18:31.435Z,20.43
2018-12-03T12:21:02.615Z,19.00
2018-12-03T12:23:32.186Z,17.90
2018-12-03T12:26:01.655Z,19.00
2018-12-03T12:28:31.447Z,19.37
2018-12-03T12:31:00.918Z,17.77
2018-12-03T12:33:32.049Z,18.03
2018-12-03T12:36:02.086Z,19.33
2018-12-03T12:38:35.261Z,18.87
2018-12-03T12:41:13.838Z,17.53
2018-12-03T12:43:43.223Z,17.80
2018-12-03T12:46:16.482Z,18.27
2018-12-03T12:48:46.531Z,16.87
2018-12-03T12:51:24.726Z,17.63
2018-12-03T12:53:54.073Z,18.03
2018-12-03T12:56:23.613Z,17.93
2018-12-03T12:59:18.814Z,17.67
2018-12-03T13:02:19.649Z,17.40
2018-12-03T13:04:51.313Z,16.77
2018-12-03T13:07:26.363Z,16.63
2018-12-03T13:09:56.011Z,17.27
2018-12-03T13:12:27.524Z,16.87
2018-12-03T13:14:57.681Z,17.87
2018-12-03T13:17:28.256Z,16.40
2018-12-03T13:19:57.703Z,16.67
2018-12-03T13:22:38.245Z,17.53
2018-12-03T13:25:11.453Z,17.00
2018-12-03T13:27:41.619Z,16.30
2018-12-03T13:30:17.407Z,16.37
2018-12-03T13:32:47.983Z,15.67
2018-12-03T13:35:18.419Z,15.30
2018-12-03T13:37:47.957Z,14.97
2018-12-03T13:40:20.744Z,14.70
2018-12-03T13:42:50.354Z,15.37
2018-12-03T13:45:27.343Z,15.63
2018-12-03T13:48:11.612Z,15.63
2018-12-03T13:50:47.465Z,16.53
2018-12-03T13:53:24.864Z,15.50
2018-12-03T13:55:55.567Z,16.63
2018-12-03T13:58:34.396Z,16.53
2018-12-03T14:01:15.066Z,16.87
2018-12-03T14:09:34.639Z,17.37
2018-12-03T14:12:13.899Z,17.07
2018-12-03T14:15:05.277Z,18.10
2018-12-03T14:17:43.489Z,17.43
2018-12-03T14:20:13.878Z,19.20
2018-12-03T14:22:52.171Z,18.73
2018-12-03T14:25:22.403Z,18.77
2018-12-03T14:27:53.153Z,19.40
2018-12-03T14:30:22.836Z,20.33
2018-12-03T14:32:56.681Z,19.70
2018-12-03T14:35:27.831Z,20.37
2018-12-03T14:38:17.219Z,20.10
2018-12-03T14:41:00.514Z,18.90
2018-12-03T14:43:48.744Z,19.00
2018-12-03T14:46:22.574Z,18.67
2018-12-03T14:49:05.421Z,19.40
2018-12-03T14:51:41.539Z,19.33
2018-12-03T14:57:22.901Z,19.53
2018-12-03T15:00:03.889Z,19.17
2018-12-03T15:02:41.007Z,18.27
2018-12-03T15:05:24.827Z,19.57
2018-12-03T15:08:01.902Z,20.33
2018-12-03T15:10:34.683Z,19.37
2018-12-03T15:13:11.066Z,19.03
2018-12-03T15:15:46.225Z,19.13
2018-12-03T15:18:23.600Z,19.83
2018-12-03T15:30:08.101Z,19.07
2018-12-03T15:32:44.368Z,18.40
2018-12-03T15:35:30.073Z,19.80
2018-12-03T15:38:15.714Z,19.70
2018-12-03T15:40:57.489Z,20.23
2018-12-03T15:43:28.696Z,19.43
2018-12-03T15:48:54.991Z,19.80
2018-12-03T15:51:27.179Z,21.57
2018-12-03T15:54:08.289Z,20.20
2018-12-03T15:56:41.328Z,20.50
2018-12-03T15:59:30.241Z,21.37
2018-12-03T16:02:06.499Z,19.90
2018-12-03T16:04:51.170Z,19.97
2018-12-03T16:16:57.860Z,21.70
2018-12-03T16:19:49.391Z,20.77
2018-12-03T16:22:33.571Z,21.67
2018-12-03T16:25:25.101Z,20.97
2018-12-03T16:30:58.030Z,22.80
2018-12-03T16:34:09.105Z,23.10
2018-12-03T16:36:51.250Z,23.30
2018-12-03T16:39:29.101Z,23.57
2018-12-03T16:42:16.358Z,23.03
2018-12-03T16:45:01.785Z,23.53
2018-12-03T16:50:44.927Z,23.37
2018-12-03T16:53:21.952Z,23.67
2018-12-03T16:59:18.704Z,23.57
2018-12-03T17:01:52.199Z,23.53
2018-12-03T17:04:30.311Z,22.77
2018-12-03T17:07:06.562Z,23.27
2018-12-03T17:09:36.394Z,23.33
2018-12-03T17:12:06.756Z,23.47
2018-12-03T17:14:40.919Z,24.30
2018-12-03T17:17:24.864Z,24.60
2018-12-03T17:20:15.663Z,25.77
2018-12-03T17:23:12.063Z,24.83
2018-12-03T17:26:05.509Z,25.00
2018-12-03T17:28:39.997Z,22.70
2018-12-03T17:37:25.484Z,24.90
2018-12-03T17:40:19.783Z,26.00
2018-12-03T17:43:19.922Z,24.67
2018-12-03T17:46:11.229Z,25.43
2018-12-03T17:49:00.681Z,27.30
2018-12-03T17:51:36.980Z,24.23
2018-12-03T17:54:18.224Z,26.50
2018-12-03T17:56:49.122Z,26.30
2018-12-03T17:59:23.263Z,25.07
2018-12-03T18:02:01.620Z,26.87
2018-12-03T18:04:37.799Z,24.83
2018-12-03T18:07:11.458Z,26.17
2018-12-03T18:09:51.675Z,26.03
2018-12-03T18:12:27.340Z,25.53
2018-12-03T18:36:41.087Z,23.87
2018-12-03T18:39:15.019Z,23.43
2018-12-03T18:41:46.191Z,22.93
2018-12-03T18:44:35.738Z,24.13
2018-12-03T18:47:14.320Z,23.20
2018-12-03T18:49:50.132Z,22.43
2018-12-03T18:55:21.755Z,24.70
2018-12-03T19:01:38.860Z,26.47
2018-12-03T19:10:37.116Z,24.23
2018-12-03T19:13:10.816Z,22.97
2018-12-03T19:15:48.152Z,23.67
2018-12-03T19:18:17.813Z,23.37
2018-12-03T19:20:58.417Z,23.57
2018-12-03T19:23:27.761Z,25.57
2018-12-03T19:25:57.187Z,24.20
2018-12-03T19:28:26.878Z,24.10
2018-12-03T19:30:58.359Z,24.77
2018-12-03T19:33:30.178Z,24.30
2018-12-03T19:35:59.702Z,25.07
2018-12-03T19:39:04.018Z,26.03
2018-12-03T19:41:36.646Z,24.67
2018-12-03T19:44:07.407Z,25.83
2018-12-03T19:46:38.072Z,26.17
2018-12-03T19:49:07.615Z,25.87
2018-12-03T19:51:37.195Z,26.17
2018-12-03T19:54:09.873Z,25.60
2018-12-03T19:56:39.908Z,24.93
2018-12-03T19:59:15.487Z,25.57
2018-12-03T20:01:51.216Z,24.80
2018-12-03T20:04:30.742Z,25.90
2018-12-03T20:07:02.236Z,25.67
2018-12-03T20:09:35.032Z,25.97
2018-12-03T20:12:05.118Z,26.50
2018-12-03T20:14:40.783Z,27.07
2018-12-03T20:17:11.200Z,26.33
2018-12-03T20:19:40.806Z,28.33
2018-12-03T20:22:11.387Z,26.57
2018-12-03T20:24:44.103Z,25.63
2018-12-03T20:27:23.730Z,25.87
2018-12-03T20:30:08.539Z,26.00
2018-12-03T20:32:54.750Z,26.47
2018-12-03T20:38:15.212Z,25.73
2018-12-03T20:40:52.400Z,25.43
2018-12-03T20:43:27.234Z,26.67
2018-12-03T20:46:06.764Z,25.10
2018-12-03T20:48:48.313Z,25.40
2018-12-03T20:51:42.455Z,24.77
2018-12-03T20:54:16.407Z,25.93
2018-12-03T20:56:49.298Z,27.80
2018-12-03T20:59:21.884Z,26.50
2018-12-03T21:01:54.683Z,25.23
2018-12-03T21:04:24.136Z,25.00
2018-12-03T21:06:57.107Z,23.03
2018-12-03T21:09:33.869Z,22.93
2018-12-03T21:12:08.580Z,22.90
2018-12-03T21:14:37.990Z,23.03
2018-12-03T21:17:10.853Z,22.07
2018-12-03T21:19:47.485Z,21.30
2018-12-03T21:22:25.280Z,21.87
2018-12-03T21:24:54.617Z,23.93
2018-12-03T21:27:29.273Z,23.23
2018-12-03T21:30:10.183Z,23.87
2018-12-03T21:32:48.485Z,22.83
2018-12-03T21:35:21.370Z,23.30
2018-12-03T21:37:55.323Z,22.50
2018-12-03T21:40:28.313Z,22.67
2018-12-03T21:43:01.458Z,22.90
2018-12-03T21:45:34.489Z,20.83
2018-12-03T21:48:06.808Z,21.57
2018-12-03T21:50:40.215Z,20.33
2018-12-03T21:53:15.237Z,21.23
2018-12-03T21:55:48.925Z,21.23
2018-12-03T21:58:22.032Z,23.00
2018-12-03T22:00:58.105Z,21.23
2018-12-03T22:03:31.049Z,22.40
2018-12-03T22:06:03.995Z,22.70
2018-12-03T22:08:37.889Z,24.37
2018-12-03T22:11:10.853Z,23.93
2018-12-03T22:13:44.126Z,23.47
2018-12-03T22:16:17.306Z,24.77
2018-12-03T22:18:50.092Z,24.00
2018-12-03T22:21:23.761Z,23.30
2018-12-03T22:23:59.048Z,23.17
2018-12-03T22:26:38.680Z,22.27
2018-12-03T22:29:12.073Z,21.57
2018-12-03T22:31:44.987Z,21.80
2018-12-03T22:34:22.862Z,20.87
2018-12-03T22:36:54.988Z,22.63
2018-12-03T22:39:28.690Z,22.50
2018-12-03T22:42:03.731Z,22.03
2018-12-03T22:44:36.407Z,22.03
2018-12-03T22:47:10.130Z,22.70
2018-12-03T22:49:48.375Z,22.97
2018-12-03T22:52:21.122Z,22.80
2018-12-03T22:54:54.603Z,22.07
2018-12-03T22:57:29.118Z,23.00
2018-12-03T23:00:04.399Z,22.73
2018-12-03T23:02:36.827Z,21.10
2018-12-03T23:05:09.898Z,21.33
2018-12-03T23:07:42.687Z,21.87
2018-12-03T23:10:18.153Z,23.03
2018-12-03T23:12:51.544Z,23.40
2018-12-03T23:15:26.865Z,23.80
2018-12-03T23:18:01.844Z,23.37
2018-12-03T23:20:34.554Z,22.37
2018-12-03T23:23:07.707Z,22.90
2018-12-03T23:25:41.882Z,23.03
2018-12-03T23:28:15.985Z,23.43
2018-12-03T23:30:51.274Z,22.93
2018-12-03T23:33:24.057Z,23.83
2018-12-03T23:35:56.936Z,22.60
2018-12-03T23:38:29.611Z,23.13
2018-12-03T23:41:02.487Z,22.93
2018-12-03T23:43:35.483Z,21.47
2018-12-03T23:46:08.429Z,22.70
2018-12-03T23:48:41.519Z,23.50
2018-12-03T23:51:16.818Z,23.47
2018-12-03T23:53:49.850Z,22.73
2018-12-03T23:56:22.599Z,22.77
2018-12-03T23:58:57.376Z,21.67
